Time,TemperatureF,DewpointF,PressureIn,WindDirection,WindDirectionDegrees,WindSpeedMPH,WindSpeedGustMPH,Humidity,HourlyPrecipIn,Conditions,Clouds,dailyrainin,SoftwareType,DateUTC
2013-06-04 00:02:00,56.0,56.0,-100.00,NW,320,0.0,2.0,98,-99.99,,,-99.99,,2013-06-04 05:02:00,
2013-06-04 00:12:00,57.0,56.0,-100.00,SW,215,2.0,7.0,97,-99.99,,,-99.99,,2013-06-04 05:12:00,
2013-06-04 00:22:00,56.0,55.0,-100.00,SE,145,0.0,3.0,97,-99.99,,,-99.99,,2013-06-04 05:22:00,
2013-06-04 00:32:00,56.0,56.0,-100.00,SE,145,0.0,1.0,98,-99.99,,,-99.99,,2013-06-04 05:32:00,
2013-06-04 00:42:00,56.0,56.0,-100.00,SE,145,0.0,1.0,98,-99.99,,,-99.99,,2013-06-04 05:42:00,
2013-06-04 00:52:00,55.0,55.0,-100.00,SE,140,1.0,2.0,97,-99.99,,,-99.99,,2013-06-04 05:52:00,
2013-06-04 01:02:00,55.0,55.0,-100.00,SE,140,1.0,2.0,97,-99.99,,,-99.99,,2013-06-04 06:02:00,
2013-06-04 01:12:00,56.0,55.0,-100.00,NW,320,1.0,2.0,97,-99.99,,,-99.99,,2013-06-04 06:12:00,
2013-06-04 01:22:00,55.0,54.0,-100.00,NW,320,0.0,2.0,97,-99.99,,,-99.99,,2013-06-04 06:22:00,
2013-06-04 01:32:00,55.0,54.0,-100.00,SSE,155,1.0,4.0,97,-99.99,,,-99.99,,2013-06-04 06:32:00,
2013-06-04 01:42:00,55.0,54.0,-100.00,SSE,155,1.0,4.0,97,-99.99,,,-99.99,,2013-06-04 06:42:00,
2013-06-04 01:52:00,55.0,54.0,-100.00,WNW,285,0.0,2.0,97,-99.99,,,-99.99,,2013-06-04 06:52:00,
2013-06-04 02:02:00,55.0,54.0,-100.00,WNW,285,0.0,2.0,97,-99.99,,,-99.99,,2013-06-04 07:02:00,
2013-06-04 02:12:00,54.0,53.0,-100.00,NW,310,0.0,1.0,97,-99.99,,,-99.99,,2013-06-04 07:12:00,
2013-06-04 02:22:00,54.0,54.0,-100.00,West,280,2.0,7.0,97,-99.99,,,-99.99,,2013-06-04 07:22:00,
2013-06-04 02:32:00,54.0,54.0,-100.00,West,280,2.0,7.0,97,-99.99,,,-99.99,,2013-06-04 07:32:00,
2013-06-04 02:42:00,54.0,53.0,-100.00,WNW,295,1.0,2.0,97,-99.99,,,-99.99,,2013-06-04 07:42:00,
2013-06-04 02:52:00,54.0,53.0,-100.00,West,280,1.0,2.0,97,-99.99,,,-99.99,,2013-06-04 07:52:00,
2013-06-04 03:02:00,54.0,53.0,-100.00,West,280,1.0,2.0,97,-99.99,,,-99.99,,2013-06-04 08:02:00,
2013-06-04 03:12:00,54.0,53.0,-100.00,West,280,1.0,2.0,97,-99.99,,,-99.99,,2013-06-04 08:12:00,
2013-06-04 03:22:00,53.0,53.0,-100.00,South,185,1.0,4.0,98,-99.99,,,-99.99,,2013-06-04 08:22:00,
2013-06-04 03:32:00,54.0,53.0,-100.00,WNW,290,0.0,2.0,97,-99.99,,,-99.99,,2013-06-04 08:32:00,
2013-06-04 03:42:00,54.0,53.0,-100.00,WNW,290,0.0,2.0,97,-99.99,,,-99.99,,2013-06-04 08:42:00,
2013-06-04 03:52:00,52.0,52.0,-100.00,NW,320,1.0,2.0,98,-99.99,,,-99.99,,2013-06-04 08:52:00,
2013-06-04 04:02:00,52.0,52.0,-100.00,NW,320,1.0,2.0,98,-99.99,,,-99.99,,2013-06-04 09:02:00,
2013-06-04 04:12:00,53.0,53.0,-100.00,SSW,205,2.0,3.0,99,-99.99,,,-99.99,,2013-06-04 09:12:00,
2013-06-04 04:22:00,53.0,52.0,-100.00,WNW,295,1.0,2.0,97,-99.99,,,-99.99,,2013-06-04 09:22:00,
2013-06-04 04:33:00,53.0,52.0,-100.00,WNW,295,1.0,2.0,97,-99.99,,,-99.99,,2013-06-04 09:33:00,
2013-06-04 04:43:00,53.0,52.0,-100.00,West,275,1.0,3.0,97,-99.99,,,-99.99,,2013-06-04 09:43:00,
2013-06-04 04:53:00,53.0,52.0,-100.00,WNW,285,1.0,2.0,98,-99.99,,,-99.99,,2013-06-04 09:53:00,
2013-06-04 05:02:00,53.0,52.0,-100.00,WNW,285,1.0,2.0,98,-99.99,,,-99.99,,2013-06-04 10:02:00,
2013-06-04 05:12:00,53.0,52.0,-100.00,WNW,295,0.0,2.0,98,-99.99,,,-99.99,,2013-06-04 10:12:00,
2013-06-04 05:23:00,52.0,51.0,-100.00,SSW,205,0.0,2.0,98,-99.99,,,-99.99,,2013-06-04 10:23:00,
2013-06-04 05:33:00,52.0,51.0,-100.00,NW,320,0.0,1.0,98,-99.99,,,-99.99,,2013-06-04 10:33:00,
2013-06-04 05:42:00,52.0,51.0,-100.00,NW,320,0.0,1.0,98,-99.99,,,-99.99,,2013-06-04 10:42:00,
2013-06-04 05:52:00,51.0,51.0,-100.00,NW,320,1.0,2.0,99,-99.99,,,-99.99,,2013-06-04 10:52:00,
2013-06-04 06:02:00,51.0,51.0,-100.00,NW,320,1.0,2.0,99,-99.99,,,-99.99,,2013-06-04 11:02:00,
2013-06-04 06:12:00,53.0,52.0,-100.00,South,180,2.0,3.0,99,-99.99,,,-99.99,,2013-06-04 11:12:00,
2013-06-04 06:22:00,52.0,52.0,-100.00,WNW,285,1.0,2.0,97,-99.99,,,-99.99,,2013-06-04 11:22:00,
2013-06-04 06:32:00,52.0,52.0,-100.00,WNW,285,1.0,2.0,97,-99.99,,,-99.99,,2013-06-04 11:32:00,
2013-06-04 06:42:00,51.0,50.0,-100.00,NW,315,2.0,2.0,97,-99.99,,,-99.99,,2013-06-04 11:42:00,
2013-06-04 06:52:00,53.0,52.0,-100.00,WNW,295,1.0,1.0,97,-99.99,,,-99.99,,2013-06-04 11:52:00,
2013-06-04 07:02:00,53.0,52.0,-100.00,WNW,295,1.0,1.0,97,-99.99,,,-99.99,,2013-06-04 12:02:00,
2013-06-04 07:12:00,54.0,53.0,-100.00,SW,220,0.0,3.0,96,-99.99,,,-99.99,,2013-06-04 12:12:00,
2013-06-04 07:22:00,56.0,54.0,-100.00,West,270,2.0,4.0,94,-99.99,,,-99.99,,2013-06-04 12:22:00,
2013-06-04 07:32:00,56.0,54.0,-100.00,West,270,2.0,4.0,94,-99.99,,,-99.99,,2013-06-04 12:32:00,
2013-06-04 07:42:00,56.0,54.0,-100.00,West,275,3.0,5.0,93,-99.99,,,-99.99,,2013-06-04 12:42:00,
2013-06-04 07:52:00,57.0,55.0,-100.00,West,270,4.0,6.0,91,-99.99,,,-99.99,,2013-06-04 12:52:00,
2013-06-04 08:02:00,57.0,55.0,-100.00,West,270,4.0,6.0,91,-99.99,,,-99.99,,2013-06-04 13:02:00,
2013-06-04 08:12:00,58.0,55.0,-100.00,WSW,255,3.0,5.0,90,-99.99,,,-99.99,,2013-06-04 13:12:00,
2013-06-04 08:22:00,59.0,55.0,-100.00,West,265,4.0,15.0,87,-99.99,,,-99.99,,2013-06-04 13:22:00,
2013-06-04 08:32:00,59.0,55.0,-100.00,West,265,4.0,15.0,87,-99.99,,,-99.99,,2013-06-04 13:32:00,
2013-06-04 08:42:00,60.0,56.0,-100.00,West,280,5.0,11.0,85,-99.99,,,-99.99,,2013-06-04 13:42:00,
2013-06-04 08:52:00,61.0,56.0,-100.00,West,280,5.0,9.0,84,-99.99,,,-99.99,,2013-06-04 13:52:00,
2013-06-04 09:00:00,64.0,57.0,-100.00,WNW,285,3.0,9.0,78,-99.99,,,-99.99,,2013-06-04 14:00:00,
2013-06-04 09:02:00,61.0,56.0,-100.00,West,280,5.0,9.0,84,-99.99,,,-99.99,,2013-06-04 14:02:00,
2013-06-04 09:12:00,62.0,57.0,-100.00,West,270,2.0,9.0,82,-99.99,,,-99.99,,2013-06-04 14:12:00,
2013-06-04 09:22:00,64.0,57.0,-100.00,West,270,4.0,8.0,78,-99.99,,,-99.99,,2013-06-04 14:22:00,
2013-06-04 09:32:00,64.0,57.0,-100.00,West,270,4.0,8.0,78,-99.99,,,-99.99,,2013-06-04 14:32:00,
2013-06-04 09:42:00,64.0,57.0,-100.00,WNW,285,3.0,9.0,78,-99.99,,,-99.99,,2013-06-04 14:42:00,
2013-06-04 09:52:00,64.0,57.0,-100.00,WNW,285,3.0,9.0,78,-99.99,,,-99.99,,2013-06-04 14:52:00,
2013-06-04 10:00:00,68.0,57.0,-100.00,West,280,6.0,10.0,68,-99.99,,,-99.99,,2013-06-04 15:00:00,
2013-06-04 10:12:00,66.0,58.0,-100.00,West,270,5.0,9.0,74,-99.99,,,-99.99,,2013-06-04 15:12:00,
2013-06-04 10:22:00,67.0,57.0,-100.00,WSW,255,5.0,10.0,70,-99.99,,,-99.99,,2013-06-04 15:22:00,
2013-06-04 10:33:00,68.0,57.0,-100.00,West,280,6.0,10.0,68,-99.99,,,-99.99,,2013-06-04 15:33:00,
2013-06-04 10:42:00,68.0,57.0,-100.00,West,280,6.0,10.0,68,-99.99,,,-99.99,,2013-06-04 15:42:00,
2013-06-04 10:53:00,68.0,57.0,-100.00,West,280,6.0,10.0,68,-99.99,,,-99.99,,2013-06-04 15:53:00,
2013-06-04 11:13:00,69.0,58.0,-100.00,WNW,290,6.0,11.0,68,-99.99,,,-99.99,,2013-06-04 16:13:00,
2013-06-04 11:23:00,70.0,59.0,-100.00,WNW,295,4.0,13.0,68,-99.99,,,-99.99,,2013-06-04 16:23:00,
2013-06-04 11:33:00,70.0,59.0,-100.00,WNW,295,4.0,13.0,68,-99.99,,,-99.99,,2013-06-04 16:33:00,
2013-06-04 11:42:00,71.0,60.0,-100.00,WNW,295,6.0,13.0,69,-99.99,,,-99.99,,2013-06-04 16:42:00,
2013-06-04 11:52:00,71.0,59.0,-100.00,WNW,295,4.0,12.0,66,-99.99,,,-99.99,,2013-06-04 16:52:00,
2013-06-04 12:03:00,71.0,59.0,-100.00,WNW,295,4.0,12.0,66,-99.99,,,-99.99,,2013-06-04 17:03:00,
2013-06-04 12:12:00,71.0,59.0,-100.00,West,280,8.0,11.0,64,-99.99,,,-99.99,,2013-06-04 17:12:00,
2013-06-04 12:23:00,72.0,60.0,-100.00,West,280,4.0,10.0,66,-99.99,,,-99.99,,2013-06-04 17:23:00,
2013-06-04 12:33:00,72.0,60.0,-100.00,West,280,4.0,10.0,66,-99.99,,,-99.99,,2013-06-04 17:33:00,
2013-06-04 12:42:00,71.0,59.0,-100.00,WNW,285,7.0,10.0,66,-99.99,,,-99.99,,2013-06-04 17:42:00,
2013-06-04 12:52:00,72.0,60.0,-100.00,WNW,295,6.0,10.0,66,-99.99,,,-99.99,,2013-06-04 17:52:00,
2013-06-04 13:02:00,72.0,60.0,-100.00,WNW,295,6.0,10.0,66,-99.99,,,-99.99,,2013-06-04 18:02:00,
2013-06-04 13:12:00,72.0,60.0,-100.00,WNW,285,4.0,7.0,66,-99.99,,,-99.99,,2013-06-04 18:12:00,
2013-06-04 13:22:00,72.0,61.0,-100.00,WNW,285,4.0,7.0,67,-99.99,,,-99.99,,2013-06-04 18:22:00,
2013-06-04 13:32:00,72.0,61.0,-100.00,WNW,285,4.0,7.0,67,-99.99,,,-99.99,,2013-06-04 18:32:00,
2013-06-04 13:42:00,73.0,60.0,-100.00,West,275,3.0,5.0,65,-99.99,,,-99.99,,2013-06-04 18:42:00,
2013-06-04 13:52:00,73.0,60.0,-100.00,WNW,295,4.0,8.0,63,-99.99,,,-99.99,,2013-06-04 18:52:00,
2013-06-04 14:02:00,73.0,60.0,-100.00,WNW,295,4.0,8.0,63,-99.99,,,-99.99,,2013-06-04 19:02:00,
2013-06-04 14:12:00,73.0,60.0,-100.00,West,280,2.0,8.0,64,-99.99,,,-99.99,,2013-06-04 19:12:00,
2013-06-04 14:22:00,73.0,61.0,-100.00,WSW,240,3.0,6.0,65,-99.99,,,-99.99,,2013-06-04 19:22:00,
2013-06-04 14:32:00,73.0,61.0,-100.00,WSW,240,3.0,6.0,65,-99.99,,,-99.99,,2013-06-04 19:32:00,
2013-06-04 14:42:00,73.0,60.0,-100.00,West,260,3.0,9.0,63,-99.99,,,-99.99,,2013-06-04 19:42:00,
2013-06-04 14:52:00,73.0,61.0,-100.00,SW,225,2.0,7.0,66,-99.99,,,-99.99,,2013-06-04 19:52:00,
2013-06-04 15:03:00,73.0,61.0,-100.00,SW,225,2.0,7.0,66,-99.99,,,-99.99,,2013-06-04 20:03:00,
2013-06-04 15:12:00,74.0,59.0,-100.00,West,275,5.0,8.0,61,-99.99,,,-99.99,,2013-06-04 20:12:00,
2013-06-04 15:22:00,73.0,61.0,-100.00,West,260,4.0,7.0,65,-99.99,,,-99.99,,2013-06-04 20:22:00,
2013-06-04 15:32:00,73.0,60.0,-100.00,WSW,255,3.0,6.0,65,-99.99,,,-99.99,,2013-06-04 20:32:00,
2013-06-04 15:42:00,73.0,60.0,-100.00,WSW,255,3.0,6.0,65,-99.99,,,-99.99,,2013-06-04 20:42:00,
2013-06-04 15:52:00,73.0,61.0,-100.00,WSW,250,4.0,7.0,66,-99.99,,,-99.99,,2013-06-04 20:52:00,
2013-06-04 16:02:00,73.0,61.0,-100.00,WSW,250,4.0,7.0,66,-99.99,,,-99.99,,2013-06-04 21:02:00,
2013-06-04 16:12:00,73.0,61.0,-100.00,WSW,250,4.0,10.0,67,-99.99,,,-99.99,,2013-06-04 21:12:00,
2013-06-04 16:22:00,72.0,61.0,-100.00,SW,235,7.0,11.0,68,-99.99,,,-99.99,,2013-06-04 21:22:00,
2013-06-04 16:33:00,72.0,61.0,-100.00,SW,235,7.0,11.0,68,-99.99,,,-99.99,,2013-06-04 21:33:00,
2013-06-04 16:42:00,72.0,62.0,-100.00,WSW,240,5.0,10.0,69,-99.99,,,-99.99,,2013-06-04 21:42:00,
2013-06-04 16:53:00,72.0,61.0,-100.00,SW,220,5.0,10.0,69,-99.99,,,-99.99,,2013-06-04 21:53:00,
2013-06-04 17:00:00,71.0,61.0,-100.00,SW,235,6.0,12.0,70,-99.99,,,-99.99,,2013-06-04 22:00:00,
2013-06-04 17:02:00,72.0,61.0,-100.00,SW,220,5.0,10.0,69,-99.99,,,-99.99,,2013-06-04 22:02:00,
2013-06-04 17:13:00,72.0,62.0,-100.00,West,260,4.0,9.0,70,-99.99,,,-99.99,,2013-06-04 22:13:00,
2013-06-04 17:22:00,72.0,61.0,-100.00,SW,230,6.0,11.0,70,-99.99,,,-99.99,,2013-06-04 22:22:00,
2013-06-04 17:32:00,71.0,61.0,-100.00,SW,235,6.0,12.0,70,-99.99,,,-99.99,,2013-06-04 22:32:00,
2013-06-04 17:42:00,71.0,61.0,-100.00,SW,235,6.0,12.0,70,-99.99,,,-99.99,,2013-06-04 22:42:00,
2013-06-04 17:52:00,71.0,61.0,-100.00,SW,235,6.0,12.0,70,-99.99,,,-99.99,,2013-06-04 22:52:00,
2013-06-04 18:12:00,71.0,62.0,-100.00,WSW,240,4.0,8.0,73,-99.99,,,-99.99,,2013-06-04 23:12:00,
2013-06-04 18:22:00,71.0,62.0,-100.00,SSE,160,4.0,7.0,73,-99.99,,,-99.99,,2013-06-04 23:22:00,
2013-06-04 18:32:00,71.0,62.0,-100.00,SSE,160,4.0,7.0,73,-99.99,,,-99.99,,2013-06-04 23:32:00,
2013-06-04 18:42:00,71.0,61.0,-100.00,West,260,3.0,7.0,73,-99.99,,,-99.99,,2013-06-04 23:42:00,
2013-06-04 18:52:00,70.0,62.0,-100.00,South,175,7.0,9.0,75,-99.99,,,-99.99,,2013-06-04 23:52:00,
2013-06-04 19:00:00,69.0,61.0,-100.00,WSW,250,2.0,6.0,75,-99.99,,,-99.99,,2013-06-05 00:00:00,
2013-06-04 19:02:00,70.0,62.0,-100.00,South,175,7.0,9.0,75,-99.99,,,-99.99,,2013-06-05 00:02:00,
2013-06-04 19:12:00,70.0,61.0,-100.00,WSW,240,4.0,13.0,74,-99.99,,,-99.99,,2013-06-05 00:12:00,
2013-06-04 19:22:00,70.0,62.0,-100.00,West,280,3.0,8.0,75,-99.99,,,-99.99,,2013-06-05 00:22:00,
2013-06-04 19:32:00,70.0,62.0,-100.00,West,280,3.0,8.0,75,-99.99,,,-99.99,,2013-06-05 00:32:00,
2013-06-04 19:42:00,69.0,61.0,-100.00,WSW,250,2.0,6.0,75,-99.99,,,-99.99,,2013-06-05 00:42:00,
2013-06-04 19:52:00,69.0,61.0,-100.00,WSW,250,2.0,6.0,75,-99.99,,,-99.99,,2013-06-05 00:52:00,
2013-06-04 20:00:00,68.0,61.0,-100.00,SSE,155,1.0,3.0,77,-99.99,,,-99.99,,2013-06-05 01:00:00,
2013-06-04 20:12:00,70.0,61.0,-100.00,South,180,2.0,4.0,74,-99.99,,,-99.99,,2013-06-05 01:12:00,
2013-06-04 20:22:00,69.0,61.0,-100.00,WNW,295,2.0,5.0,77,-99.99,,,-99.99,,2013-06-05 01:22:00,
2013-06-04 20:32:00,68.0,61.0,-100.00,SSE,155,1.0,3.0,77,-99.99,,,-99.99,,2013-06-05 01:32:00,
2013-06-04 20:42:00,68.0,61.0,-100.00,SSE,155,1.0,3.0,77,-99.99,,,-99.99,,2013-06-05 01:42:00,
2013-06-04 20:52:00,68.0,61.0,-100.00,SSE,155,1.0,3.0,77,-99.99,,,-99.99,,2013-06-05 01:52:00,
2013-06-04 21:00:00,66.0,62.0,-100.00,South,170,1.0,3.0,86,-99.99,,,-99.99,,2013-06-05 02:00:00,
2013-06-04 21:12:00,67.0,61.0,-100.00,West,270,2.0,4.0,80,-99.99,,,-99.99,,2013-06-05 02:12:00,
2013-06-04 21:22:00,68.0,61.0,-100.00,South,180,2.0,5.0,79,-99.99,,,-99.99,,2013-06-05 02:22:00,
2013-06-04 21:32:00,66.0,62.0,-100.00,South,170,1.0,3.0,86,-99.99,,,-99.99,,2013-06-05 02:32:00,
2013-06-04 21:42:00,66.0,62.0,-100.00,South,170,1.0,3.0,86,-99.99,,,-99.99,,2013-06-05 02:42:00,
2013-06-04 21:52:00,66.0,62.0,-100.00,South,170,1.0,3.0,86,-99.99,,,-99.99,,2013-06-05 02:52:00,
2013-06-04 22:12:00,65.0,63.0,-100.00,NW,320,0.0,4.0,92,-99.99,,,-99.99,,2013-06-05 03:12:00,
2013-06-04 22:22:00,66.0,62.0,-100.00,WNW,295,2.0,4.0,87,-99.99,,,-99.99,,2013-06-05 03:22:00,
2013-06-04 22:33:00,66.0,62.0,-100.00,WNW,295,2.0,4.0,87,-99.99,,,-99.99,,2013-06-05 03:33:00,
2013-06-04 22:43:00,66.0,62.0,-100.00,West,265,3.0,5.0,87,-99.99,,,-99.99,,2013-06-05 03:43:00,
2013-06-04 22:53:00,66.0,62.0,-100.00,WSW,240,2.0,4.0,86,-99.99,,,-99.99,,2013-06-05 03:53:00,
2013-06-04 23:00:00,62.0,61.0,-100.00,North,0,3.0,4.0,94,-99.99,,,-99.99,,2013-06-05 04:00:00,
2013-06-04 23:02:00,66.0,62.0,-100.00,WSW,240,2.0,4.0,86,-99.99,,,-99.99,,2013-06-05 04:02:00,
2013-06-04 23:13:00,65.0,61.0,-100.00,West,265,1.0,4.0,87,-99.99,,,-99.99,,2013-06-05 04:13:00,
2013-06-04 23:23:00,64.0,61.0,-100.00,South,175,0.0,1.0,90,-99.99,,,-99.99,,2013-06-05 04:23:00,
2013-06-04 23:33:00,62.0,61.0,-100.00,North,0,3.0,4.0,94,-99.99,,,-99.99,,2013-06-05 04:33:00,
2013-06-04 23:42:00,62.0,61.0,-100.00,North,0,3.0,4.0,94,-99.99,,,-99.99,,2013-06-05 04:42:00,
2013-06-04 23:53:00,62.0,61.0,-100.00,North,0,3.0,4.0,94,-99.99,,,-99.99,,2013-06-05 04:53:00,